4XGAR LLMG-LLMG

Flight info

Callsign 4XGAR
Flight time 0h 2m
Altitude 5000
Route LLMG
Aircraft SF25/L-ICAO/2111

Departure

Time 2026-05-01 12:33
Airport Megiddo Airport (LLMG)

Arrival

Time 2026-05-01 12:35
Airport Megiddo Airport (LLMG)
Time Latitude Longitude Altitude Speed Heading
2026-05-01 12:26 32.59606 35.23532 187 ft 0 kts 235°
2026-05-01 12:29 32.59598 35.23521 187 ft 0 kts 218°
2026-05-01 12:30 32.59651 35.23485 187 ft 6 kts 330°
2026-05-01 12:30 32.59656 35.23482 199 ft 0 kts 329°
2026-05-01 12:30 32.59671 35.23472 192 ft 3 kts 330°
2026-05-01 12:31 32.59672 35.23471 192 ft 0 kts 330°
2026-05-01 12:32 32.59675 35.23469 191 ft 3 kts 335°
2026-05-01 12:32 32.59719 35.23255 191 ft 39 kts 277°
2026-05-01 12:32 32.59700 35.22822 299 ft 60 kts 277°
2026-05-01 12:33 32.59703 35.22490 507 ft 60 kts 285°
2026-05-01 12:33 32.59765 35.22030 816 ft 54 kts 292°
2026-05-01 12:33 32.59750 35.21567 1056 ft 69 kts 248°
2026-05-01 12:33 32.59236 35.21556 1398 ft 94 kts 133°
2026-05-01 12:34 32.59069 35.22269 1689 ft 91 kts 90°
2026-05-01 12:34 32.59032 35.23045 1887 ft 92 kts 79°
2026-05-01 12:34 32.59220 35.23779 1929 ft 103 kts 72°
2026-05-01 12:34 32.59192 35.24682 1881 ft 106 kts 90°
2026-05-01 12:35 32.59436 35.25126 1452 ft 63 kts 334°
2026-05-01 12:35 32.59646 35.24646 559 ft 64 kts 307°
2026-05-01 12:35 32.59693 35.24150 201 ft 46 kts 277°
2026-05-01 12:35 32.59700 35.23861 183 ft 26 kts 269°
2026-05-01 12:36 32.59700 35.23690 184 ft 16 kts 269°
2026-05-01 12:36 32.59702 35.23589 186 ft 8 kts 272°
2026-05-01 12:36 32.59702 35.23516 187 ft 13 kts 258°
2026-05-01 12:36 32.59669 35.23476 195 ft 0 kts 148°
2026-05-01 12:37 32.59665 35.23480 187 ft 2 kts 105°
2026-05-01 12:37 32.59665 35.23485 187 ft 1 kts 62°
2026-05-01 12:37 32.59667 35.23487 187 ft 0 kts 31°
2026-05-01 12:37 32.59673 35.23488 188 ft 0 kts 330°
2026-05-01 12:39 32.59707 35.23376 190 ft 31 kts 270°
2026-05-01 12:39 32.59706 35.22977 259 ft 61 kts 280°
2026-05-01 12:39 32.59667 35.22475 594 ft 59 kts 277°
2026-05-01 12:40 32.59580 35.22027 950 ft 60 kts 256°
2026-05-01 12:40 32.59149 35.21788 1206 ft 85 kts 195°
2026-05-01 12:40 32.58541 35.21867 1471 ft 89 kts 177°
2026-05-01 12:40 32.57934 35.22021 1801 ft 87 kts 193°
2026-05-01 12:41 32.57446 35.21879 2094 ft 60 kts 215°
2026-05-01 12:41 32.57137 35.21676 2219 ft 39 kts 272°
2026-05-01 12:41 32.57408 35.21832 2171 ft 86 kts 69°
2026-05-01 12:41 32.57145 35.22308 2260 ft 64 kts 222°
2026-05-01 12:42 32.57302 35.22237 2360 ft 82 kts 54°
2026-05-01 12:42 32.57053 35.22745 2401 ft 73 kts 192°
2026-05-01 12:42 32.57033 35.22535 2461 ft 55 kts 335°
2026-05-01 12:42 32.57179 35.22972 2543 ft 82 kts 154°
2026-05-01 12:43 32.57054 35.22822 2639 ft 63 kts 354°
2026-05-01 12:43 32.57010 35.23222 2720 ft 64 kts 212°
2026-05-01 12:43 32.57129 35.23054 2853 ft 66 kts 26°
2026-05-01 12:43 32.57046 35.23583 2897 ft 74 kts 187°
2026-05-01 12:44 32.56897 35.23278 2927 ft 59 kts 324°
2026-05-01 12:44 32.57122 35.23696 3019 ft 83 kts 128°
2026-05-01 12:44 32.57150 35.23800 3029 ft 88 kts 90°
2026-05-01 12:45 32.56932 35.23914 3150 ft 73 kts 25°
2026-05-01 12:45 32.56899 35.24471 3202 ft 76 kts 165°
2026-05-01 12:45 32.56602 35.24283 3241 ft 54 kts 293°
2026-05-01 12:46 32.56961 35.24468 3307 ft 86 kts 85°
2026-05-01 12:46 32.56612 35.24715 3323 ft 57 kts 236°
2026-05-01 12:46 32.56855 35.24577 3355 ft 83 kts 48°
2026-05-01 12:46 32.56613 35.24992 3298 ft 69 kts 216°
2026-05-01 12:47 32.56535 35.24656 3349 ft 66 kts 335°
2026-05-01 12:47 32.56936 35.24570 3358 ft 58 kts 257°
2026-05-01 12:47 32.56677 35.24203 3376 ft 60 kts 270°
2026-05-01 12:47 32.56641 35.23727 3418 ft 60 kts 266°
2026-05-01 12:48 32.56597 35.23175 3293 ft 72 kts 268°
2026-05-01 12:48 32.56745 35.22802 3436 ft 77 kts
2026-05-01 12:48 32.56796 35.23390 3499 ft 80 kts 159°
2026-05-01 12:48 32.56466 35.23214 3443 ft 63 kts 259°
2026-05-01 12:49 32.56355 35.22644 3384 ft 72 kts 261°
2026-05-01 12:49 32.56230 35.22029 3357 ft 78 kts 257°
2026-05-01 12:49 32.56040 35.21430 3344 ft 75 kts 252°
2026-05-01 12:49 32.55927 35.21093 3600 ft 50 kts 252°
2026-05-01 12:50 32.55800 35.20704 3569 ft 55 kts 253°
2026-05-01 12:50 32.55657 35.20226 3478 ft 72 kts 249°
2026-05-01 12:50 32.55432 35.19757 3599 ft 58 kts 245°
2026-05-01 12:50 32.55138 35.19268 3569 ft 75 kts 242°
2026-05-01 12:51 32.54808 35.18757 3501 ft 81 kts 239°
2026-05-01 12:51 32.54464 35.18190 3421 ft 90 kts 239°
2026-05-01 12:51 32.53697 35.17079 3340 ft 82 kts 243°
2026-05-01 12:52 32.53369 35.16495 3232 ft 87 kts 237°
2026-05-01 12:52 32.52685 35.15326 3280 ft 71 kts 241°
2026-05-01 12:52 32.52436 35.14859 3370 ft 64 kts 244°
2026-05-01 12:53 32.51982 35.14124 3588 ft 49 kts 265°
2026-05-01 12:53 32.52045 35.13630 3475 ft 71 kts 274°
2026-05-01 12:53 32.52075 35.13004 3421 ft 80 kts 266°
2026-05-01 12:54 32.52049 35.12332 3365 ft 92 kts 255°
2026-05-01 12:54 32.51498 35.10851 3292 ft 108 kts 249°
2026-05-01 12:54 32.51057 35.10598 3246 ft 135 kts 64°
2026-05-01 12:55 32.51833 35.10508 3192 ft 140 kts 75°
2026-05-01 12:55 32.52070 35.11762 2922 ft 164 kts 73°
2026-05-01 12:55 32.52510 35.13027 2665 ft 172 kts 52°
2026-05-01 12:56 32.53207 35.14111 2752 ft 157 kts 47°
2026-05-01 12:56 32.53900 35.15096 2635 ft 154 kts 45°
2026-05-01 12:56 32.54611 35.16052 2510 ft 151 kts 43°
2026-05-01 12:56 32.55344 35.16848 2524 ft 141 kts 36°
2026-05-01 12:57 32.55998 35.17749 2332 ft 153 kts 46°
2026-05-01 12:57 32.57398 35.19499 2363 ft 130 kts 14°
2026-05-01 12:57 32.58308 35.19639 2275 ft 130 kts 351°
2026-05-01 12:58 32.59064 35.19868 2096 ft 118 kts 50°
2026-05-01 12:58 32.59522 35.20839 877 ft 146 kts 54°
2026-05-01 12:58 32.59721 35.22068 214 ft 155 kts 89°
2026-05-01 12:59 32.59614 35.24357 614 ft 85 kts 128°
2026-05-01 12:59 32.59740 35.24635 396 ft 74 kts 284°
2026-05-01 12:59 32.59703 35.23775 183 ft 33 kts 276°
2026-05-01 13:00 32.59658 35.23466 188 ft 9 kts 166°
2026-05-01 13:00 32.59650 35.23485 188 ft 0 kts 34°